x

Halibut Bank (46146) Wave Buoy

2:00 - Thu 23rd Mar 2017 All times are PDT. -7 hours from GMT.

  • Sig Wave height 2.3ft
  • Peak Period 4s
  • Wind
    18mph, 25mph gusts
  • Sea Temp 46°f
  • Luft Temp 47°f
  • Sea Pressure 1015mb
  • Halibut Bank
  • Halibut Bank

More Historic Weather Station data

Upgrade to MSW Pro to gain access to the past 30 days of data for over 8000 Wavebouys and Weather Stations around the globe.

Join Pro

Comparision Forecast

View Surf forecast
   
Do 03/23 2:00 2.5ft 4s 18 25 mph 1015mb 46f 47f
1:00 2.5ft 4s 16 20 mph 1016mb 46f 46f
12:00 2.5ft 4s 20 22 mph 1016.5mb 46f 46f
11:00 2.5ft 4s 20 22 mph 1016.6mb 46f 45f
10:00 3ft 4s 20 25 mph 1016.6mb 46f 45f
9:00 2.5ft 4s 20 25 mph 1016.4mb 46f 45f
8:00 2.5ft 4s 18 20 mph 1016.4mb 46f 45f
7:00 2.5ft 4s 18 20 mph 1016.1mb 46f 45f
6:00 2.5ft 4s 18 22 mph 1016mb 46f 45f
5:00 1.6ft 3s 16 20 mph 1015.9mb 46f 46f
4:00 1.3ft 3s 13 18 mph 1016mb 46f 46f
3:00 1.3ft 3s 16 18 mph 1015.9mb 46f 46f
2:00 1ft 3s 13 18 mph 1015.6mb 46f 46f
1:00 1.3ft 3s 13 20 mph 1015.7mb 46f 45f
12:00 1.6ft 4s 16 18 mph 1015.3mb 46f 45f
Mi 03/22 11:00 1.6ft 3s 13 18 mph 1015.3mb 46f 45f
10:00 1.6ft 3s 20 22 mph 1014.6mb 46f 46f
9:00 1.6ft 3s 4 13 mph 1014mb 46f 48f
8:00 1.3ft 3s 13 22 mph 1012.9mb 46f 48f
7:00 1ft 3s 16 18 mph 1011mb 46f 49f
6:00 1ft 3s 9 13 mph 1009.6mb 46f 49f
5:00 1.3ft 3s 11 18 mph 1008.8mb 46f 49f
4:00 1.6ft 3s 16 20 mph 1008.3mb 46f 48f
3:00 2ft 3s 16 20 mph 1008.2mb 46f 48f
2:00 2ft 3s 22 25 mph 1007.6mb 46f 48f
1:00 1.6ft 3s 18 22 mph 1007.5mb 46f 48f
12:00 2.5ft 4s 13 18 mph 1007.1mb 46f 47f
11:00 2.5ft 4s 16 20 mph 1006.8mb 46f 48f
10:00 3ft 4s 18 20 mph 1006mb 46f 48f
9:00 2.5ft 4s 20 25 mph 1005.4mb 46f 48f
8:00 2ft 3s 25 27 mph 1004.5mb 46f 49f
7:00 1.3ft 3s 18 22 mph 1003.9mb 46f 49f
6:00 1ft 3s 16 18 mph 1003.5mb 46f 48f
5:00 1ft 3s 13
mph
1003.9mb 46f 48f
4:00 1.3ft 3s 16 18 mph 1004.1mb 46f 50f
3:00 1.3ft 3s 16 18 mph 1004.6mb 46f 49f
2:00 1.3ft 3s 16 18 mph 1004.8mb 46f 48f
1:00 1.3ft 3s 16 18 mph 1004.7mb 46f 49f
12:00 1ft 3s 13 16 mph 1004.7mb 46f 48f
Di 03/21 11:00 1ft 3s 13
mph
1005.1mb 46f 48f
10:00 1ft 3s 13 16 mph 1005.3mb 46f 48f
9:00 1ft 3s 13 16 mph 1005.5mb 46f 48f
8:00 1ft 3s 13 16 mph 1005.6mb 46f 49f
7:00 1.3ft 3s 16 18 mph 1005.4mb 46f 49f
6:00 1ft 3s 13
mph
1005.4mb 46f 49f
5:00 1ft 3s 11 13 mph 1005.5mb 46f 47f
4:00 0.7ft 3s 16 20 mph 1005.1mb 46f 47f
3:00 0.7ft 3s 9 11 mph 1005.3mb 46f 46f
2:00 0.7ft 4s 7
mph
1005.4mb 46f 45f
1:00 0.7ft 2s 11 13 mph 1005.7mb 46f 46f
12:00 0.7ft 2s 7
mph
1005.5mb 46f 46f
11:00 0.7ft 3s 7 11 mph 1006.2mb 46f 45f
10:00 1ft 3s 11 13 mph 1006.8mb 46f 45f
9:00 0.7ft 2s 13 18 mph 1006.6mb 46f 45f
8:00 0.3ft 6s 7 11 mph 1007.2mb 46f 44f
7:00 0.3ft 7s 4
mph
1007.7mb 46f 44f
6:00 0.3ft 2s 4 7 mph 1007.6mb 46f 45f
5:00 0.3ft 2s 4 7 mph 1007.3mb 46f 46f
4:00 0.3ft 2s 7 9 mph 1007.5mb 46f 46f
3:00 0.3ft 3s 4
mph
1008.8mb 46f 46f
2:00 0.3ft 3s 2 4 mph 1009.6mb 46f 46f
1:00 0.3ft 2s 2 4 mph 1010.5mb 46f 46f
12:00 0.3ft 6s 7 9 mph 1011.5mb 46f 46f
Mo 03/20 11:00 0.3ft 6s 4 7 mph 1012.2mb 46f 46f
10:00 0.3ft 2s 4 9 mph 1012.9mb 46f 46f
9:00 0.7ft 2s 4 7 mph 1013.4mb 46f 46f
8:00 0.3ft 2s 4
mph
1013.6mb 46f 46f
7:00 0.7ft 2s 9
mph
1013.3mb 46f 45f
6:00 0.7ft 2s 9 11 mph 1013.3mb 46f 45f
5:00 0.7ft 2s 9
mph
1014.2mb 46f 45f
4:00 1ft 2s 11
mph
1015mb 46f 45f
3:00 1ft 3s 13 16 mph 1015.6mb 46f 44f
2:00 1ft 3s 11 13 mph 1016.6mb 46f 43f
1:00 1ft 3s 11 13 mph 1017.7mb 46f 42f
12:00 1ft 3s 11 13 mph 1018.6mb 46f 42f
11:00 1ft 3s 13 16 mph 1018.9mb 46f 41f
10:00 1ft 3s 11 16 mph 1019.2mb 46f 41f
9:00 1ft 3s 9 11 mph 1019.9mb 46f 41f
8:00 1.3ft 3s 9 11 mph 1020.4mb 46f 40f
7:00 1.3ft 3s 16 18 mph 1020.5mb 46f 41f
6:00 1ft 3s 11 13 mph 1020.8mb 46f 41f
5:00 1ft 3s 16 18 mph 1021.1mb 46f 41f
4:00 0.7ft 3s 13 16 mph 1021.9mb 46f 42f
3:00 1ft 2s 7 9 mph 1022.6mb 46f 41f
2:00 1ft 2s 11 13 mph 1023.1mb 46f 41f
1:00 0.7ft 2s 13 16 mph 1023.6mb 46f 41f
12:00 0.7ft 3s 9 11 mph 1024.1mb 46f 42f
So 03/19 11:00 0.3ft 2s 9 11 mph 1024.4mb 46f 43f